Latest Weather Observations for Holsworthy

IDN60801

Issued at 4:33 pm EST Friday 18 August 2017 (issued every 30 minutes, with the page automatically refreshed every 10 minutes)

About weather observations | Map of weather stations | Latest weather observations for NSW | Other Formats
Station Details ID: 066161 Name: HOLSWORTHY AERODROME AWS Lat: -33.99 Lon: 150.95 Height: 68.16 m
Data from the previous 72 hours. | See also: Recent months at Holsworthy
Date/Time
EST
Temp
°C
App
Temp
°C
Dew
Point
°C
Rel
Hum
%
Delta-T
°C
Wind Press
QNH
hPa
Press
MSL
hPa
Rain since
9am
mm
Dir  Spd
km/h
Gust
km/h
Spd
kts
Gust
kts
18/04:30pm 13.9 5.1 -0.9 36 6.1 W 35 54 19 29 1009.0 1009.0 0.0
18/04:00pm 14.3 4.1 -0.5 36 6.2 WSW 43 72 23 39 1008.4 1008.4 0.0
18/03:30pm 14.9 5.1 0.0 36 6.3 W 41 72 22 39 1008.1 1008.1 0.0
18/03:24pm 15.0 5.9 -0.7 34 6.5 W 37 72 20 39 1007.9 1007.9 0.0
18/03:00pm 15.4 7.7 -0.4 34 6.7 W 30 50 16 27 1007.7 1007.7 0.0
18/02:30pm 15.3 6.6 -0.4 34 6.6 W 35 57 19 31 1007.6 1007.6 0.0
18/02:00pm 15.5 5.6 -0.7 33 6.8 W 41 65 22 35 1007.8 1007.8 0.0
18/01:30pm 15.3 4.9 -0.4 34 6.6 W 44 67 24 36 1007.6 1007.6 0.0
18/01:00pm 15.3 5.5 -0.4 34 6.6 W 41 63 22 34 1007.3 1007.3 0.0
18/12:35pm 15.4 6.7 -0.8 33 6.8 W 35 78 19 42 1007.2 1007.2 0.0
18/12:30pm 15.6 6.9 -0.6 33 6.8 W 35 59 19 32 1007.3 1007.3 0.0
18/12:00pm 15.0 5.5 -0.7 34 6.6 W 39 67 21 36 1007.6 1007.6 0.0
18/11:30am 14.9 5.8 -0.4 35 6.4 W 37 67 20 36 1007.9 1007.9 0.0
18/11:00am 14.6 5.6 0.1 37 6.1 W 37 65 20 35 1008.0 1008.0 0.0
18/10:30am 14.0 3.9 0.6 40 5.7 W 43 65 23 35 1008.2 1008.2 0.0
18/10:17am 13.7 3.6 0.4 40 5.6 W 43 76 23 41 1008.3 1008.3 0.0
18/10:00am 13.8 5.8 0.5 40 5.6 W 32 57 17 31 1008.7 1008.7 0.0
18/09:30am 13.5 5.3 0.5 41 5.5 W 33 52 18 28 1008.9 1008.9 0.0
18/09:00am 13.0 4.8 0.4 42 5.3 W 33 65 18 35 1009.3 1009.3 0.0
18/08:30am 12.6 4.4 0.4 43 5.1 W 33 61 18 33 1009.3 1009.3 0.0
18/08:00am 12.3 5.1 0.7 45 4.9 W 28 50 15 27 1009.0 1009.0 0.0
18/07:59am 12.2 5.0 0.6 45 4.8 W 28 50 15 27 1008.9 1008.9 0.0
18/07:30am 11.5 6.1 1.5 50 4.2 W 19 30 10 16 1009.0 1009.0 0.0
18/07:00am 10.6 6.0 1.7 54 3.8 W 15 24 8 13 1008.7 1008.7 0.0
18/06:30am 10.4 5.5 2.0 56 3.6 W 17 26 9 14 1008.6 1008.6 0.0
18/06:00am 10.5 5.4 2.8 59 3.3 WNW 19 32 10 17 1008.3 1008.3 0.0
18/05:30am 10.2 6.3 3.5 63 2.9 W 13 20 7 11 1008.7 1008.7 0.0
18/05:00am 10.8 5.8 3.6 61 3.2 W 19 35 10 19 1008.3 1008.3 0.0
18/04:30am 11.4 5.1 3.9 60 3.4 W 26 43 14 23 1008.4 1008.4 0.0
18/04:00am 12.0 6.1 4.0 58 3.6 WSW 24 35 13 19 1008.2 1008.2 0.0
18/03:30am 12.7 6.7 3.6 54 4.1 WSW 24 37 13 20 1007.7 1007.7 0.0
18/03:00am 13.0 7.0 3.4 52 4.3 WSW 24 41 13 22 1007.8 1007.8 0.0
18/02:30am 13.7 6.8 2.6 47 4.9 WSW 28 46 15 25 1007.6 1007.6 0.0
18/02:24am 13.8 6.9 2.4 46 5.0 WSW 28 46 15 25 1007.6 1007.6 0.0
18/02:00am 14.4 8.2 2.0 43 5.5 WSW 24 39 13 21 1007.7 1007.7 0.0
18/01:30am 15.8 8.5 0.0 34 6.7 W 28 54 15 29 1007.6 1007.6 0.0
18/01:22am 16.2 8.8 -0.5 32 7.1 W 28 54 15 29 1007.6 1007.6 0.0
18/01:00am 15.9 10.1 -1.6 30 7.2 WNW 19 30 10 16 1007.2 1007.2 0.0
18/12:30am 15.8 10.7 -1.7 30 7.2 WNW 15 26 8 14 1007.1 1007.1 0.0
18/12:00am 16.1 11.1 -1.5 30 7.3 WNW 15 24 8 13 1007.3 1007.3 0.0
 
Date/Time
EST
Temp
°C
App
Temp
°C
Dew
Point
°C
Rel
Hum
%
Delta-T
°C
Wind Press
QNH
hPa
Press
MSL
hPa
Rain since
9am
mm
Dir  Spd
km/h
Gust
km/h
Spd
kts
Gust
kts
17/11:30pm 16.5 10.7 -1.6 29 7.5 WNW 19 32 10 17 1007.6 1007.6 0.0
17/11:00pm 16.7 10.8 -0.5 31 7.3 WNW 20 33 11 18 1007.7 1007.7 0.0
17/10:30pm 16.4 11.2 0.1 33 7.0 WNW 17 28 9 15 1007.8 1007.8 0.0
17/10:00pm 16.4 11.7 0.9 35 6.8 WNW 15 30 8 16 1007.8 1007.8 0.0
17/09:30pm 16.4 12.1 0.9 35 6.8 WNW 13 20 7 11 1007.7 1007.7 0.0
17/09:00pm 16.6 11.5 0.7 34 7.0 WNW 17 24 9 13 1007.9 1007.9 0.0
17/08:30pm 17.1 11.6 0.7 33 7.2 WNW 19 35 10 19 1007.6 1007.6 0.0
17/08:00pm 17.2 12.0 0.4 32 7.3 WNW 17 35 9 19 1007.4 1007.4 0.0
17/07:30pm 17.2 12.0 0.4 32 7.3 WNW 17 24 9 13 1007.5 1007.5 0.0
17/07:00pm 17.3 11.7 0.0 31 7.5 WNW 19 28 10 15 1007.3 1007.3 0.0
17/06:30pm 17.7 11.9 -0.1 30 7.7 WNW 20 35 11 19 1006.8 1006.8 0.0
17/06:00pm 17.9 12.7 0.1 30 7.8 WNW 17 28 9 15 1006.3 1006.3 0.0
17/05:30pm 18.3 12.7 0.0 29 8.0 WNW 19 30 10 16 1005.8 1005.8 0.0
17/05:00pm 19.2 12.2 -0.2 27 8.5 WNW 26 37 14 20 1005.4 1005.4 0.0
17/04:42pm 19.6 12.2 -0.4 26 8.8 WNW 28 50 15 27 1005.2 1005.2 0.0
17/04:30pm 19.8 13.2 -0.2 26 8.8 WNW 24 39 13 21 1005.2 1005.2 0.0
17/04:01pm 20.3 13.0 -0.3 25 9.1 WNW 28 48 15 26 1004.9 1004.9 0.0
17/04:00pm 20.3 13.3 -0.3 25 9.1 WNW 26 48 14 26 1004.9 1004.9 0.0
17/03:30pm 20.9 15.4 0.7 26 9.1 W 19 30 10 16 1005.0 1005.0 0.0
17/03:00pm 21.7 16.4 1.9 27 9.3 WNW 19 33 10 18 1005.1 1005.1 0.0
17/02:30pm 21.3 15.2 0.5 25 9.4 W 22 39 12 21 1005.1 1005.1 0.0
17/02:00pm 21.5 15.4 0.7 25 9.5 W 22 35 12 19 1005.2 1005.2 0.0
17/01:30pm 21.3 15.9 1.0 26 9.3 NW 19 33 10 18 1005.3 1005.3 0.0
17/01:00pm 21.1 15.2 1.4 27 9.1 NW 22 37 12 20 1005.8 1005.8 0.0
17/12:30pm 20.8 16.4 2.6 30 8.5 WNW 15 24 8 13 1006.1 1006.1 0.0
17/12:00pm 20.1 14.9 2.5 31 8.2 W 19 28 10 15 1006.6 1006.6 0.0
17/11:30am 19.8 16.2 3.1 33 7.9 W 11 20 6 11 1007.3 1007.3 0.0
17/11:00am 18.8 13.3 1.8 32 7.8 NW 20 28 11 15 1007.9 1007.9 0.0
17/10:30am 18.4 14.8 2.7 35 7.2 NNW 11 17 6 9 1008.3 1008.3 0.0
17/10:00am 17.4 14.4 4.0 41 6.3 NNW 9 13 5 7 1008.7 1008.7 0.0
17/09:30am 16.3 13.9 5.3 48 5.3 N 7 9 4 5 1008.9 1008.9 0.0
17/09:00am 14.4 11.9 5.0 53 4.4 N 7 9 4 5 1008.9 1008.9 0.2
17/08:30am 13.0 10.6 4.4 56 3.9 NNE 6 9 3 5 1008.7 1008.7 0.2
17/08:00am 10.5 8.1 4.4 66 2.7 E 6 7 3 4 1008.7 1008.7 0.2
17/07:30am 7.9 4.9 3.9 76 1.7 ESE 9 9 5 5 1008.6 1008.6 0.2
17/07:00am 5.7 2.9 3.2 84 1.0 ESE 7 9 4 5 1008.2 1008.2 0.2
17/06:30am 4.4 1.4 2.3 86 0.8 ESE 7 9 4 5 1007.9 1007.9 0.2
17/06:00am 5.0 2.1 2.5 84 1.0 SE 7 9 4 5 1007.6 1007.6 0.2
17/05:30am 4.9 1.9 2.3 83 1.1 ESE 7 9 4 5 1007.5 1007.5 0.2
17/05:00am 5.5 3.6 2.7 82 1.2 E 2 7 1 4 1007.4 1007.4 0.2
17/04:30am 5.3 2.6 2.5 82 1.1 ESE 6 7 3 4 1007.3 1007.3 0.2
17/04:00am 5.3 3.0 2.7 83 1.1 ESE 4 7 2 4 1007.2 1007.2 0.2
17/03:30am 5.6 3.7 2.6 81 1.2 ESE 2 6 1 3 1007.1 1007.1 0.2
17/03:00am 6.2 3.4 3.0 80 1.3 ESE 7 9 4 5 1007.3 1007.3 0.2
17/02:30am 6.0 3.3 2.8 80 1.3 ESE 6 7 3 4 1007.5 1007.5 0.2
17/02:00am 6.7 4.1 3.1 78 1.5 ESE 6 9 3 5 1007.8 1007.8 0.2
17/01:30am 7.0 4.4 3.4 78 1.5 SSE 6 7 3 4 1008.0 1008.0 0.2
17/01:00am 7.3 5.9 3.5 77 1.6 CALM 0 0 0 0 1008.2 1008.2 0.2
17/12:30am 7.9 6.1 3.6 74 1.8 E 2 7 1 4 1008.4 1008.4 0.2
17/12:00am 9.2 7.0 3.4 67 2.5 N 4 9 2 5 1008.6 1008.6 0.2
 
Date/Time
EST
Temp
°C
App
Temp
°C
Dew
Point
°C
Rel
Hum
%
Delta-T
°C
Wind Press
QNH
hPa
Press
MSL
hPa
Rain since
9am
mm
Dir  Spd
km/h
Gust
km/h
Spd
kts
Gust
kts
16/11:30pm 10.4 8.6 3.4 62 3.1 NNE 2 6 1 3 1008.6 1008.6 0.2
16/11:00pm 11.8 9.1 3.6 57 3.7 NNW 7 11 4 6 1008.6 1008.6 0.2
16/10:30pm 12.0 8.6 3.8 57 3.7 N 11 15 6 8 1008.5 1008.5 0.2
16/10:00pm 12.0 8.9 3.5 56 3.8 N 9 13 5 7 1008.6 1008.6 0.2
16/09:30pm 11.9 8.8 3.4 56 3.8 NNW 9 11 5 6 1008.4 1008.4 0.2
16/09:00pm 12.5 9.4 3.5 54 4.0 NW 9 13 5 7 1008.3 1008.3 0.2
16/08:30pm 12.7 9.2 3.6 54 4.1 NNW 11 15 6 8 1008.1 1008.1 0.2
16/08:00pm 13.3 10.2 3.4 51 4.5 NW 9 13 5 7 1007.9 1007.9 0.2
16/07:30pm 14.2 10.7 3.4 48 4.9 WNW 11 15 6 8 1007.6 1007.6 0.2
16/07:00pm 14.4 10.9 3.5 48 5.0 WNW 11 15 6 8 1007.3 1007.3 0.2
16/06:30pm 15.3 11.4 3.5 45 5.4 WNW 13 19 7 10 1007.0 1007.0 0.2
16/06:00pm 16.0 12.4 3.1 42 5.9 WNW 11 15 6 8 1006.6 1006.6 0.2
16/05:30pm 17.1 12.2 2.3 37 6.7 WNW 17 30 9 16 1005.9 1005.9 0.2
16/05:00pm 18.1 12.9 2.4 35 7.2 WNW 19 35 10 19 1005.4 1005.4 0.2
16/04:30pm 19.0 14.2 2.4 33 7.7 W 17 26 9 14 1005.0 1005.0 0.2
16/04:00pm 19.4 13.2 2.3 32 7.9 W 24 35 13 19 1004.4 1004.4 0.2
16/03:30pm 19.6 12.6 2.0 31 8.1 W 28 50 15 27 1003.8 1003.8 0.2
16/03:13pm 19.7 12.6 1.2 29 8.4 W 28 50 15 27 1003.7 1003.7 0.2
16/03:00pm 20.3 15.1 3.5 33 8.0 W 20 33 11 18 1003.6 1003.6 0.2
16/02:52pm 19.8 12.9 2.6 32 8.0 W 28 50 15 27 1003.5 1003.5 0.2
16/02:30pm 19.7 13.1 2.1 31 8.1 W 26 44 14 24 1003.5 1003.5 0.2
16/02:00pm 19.7 11.2 3.0 33 7.9 W 37 56 20 30 1003.1 1003.1 0.2
16/01:30pm 19.8 13.3 4.7 37 7.3 W 28 46 15 25 1002.8 1002.8 0.2
16/01:03pm 19.9 13.6 5.5 39 7.1 W 28 46 15 25 1002.7 1002.7 0.2
16/01:00pm 19.9 13.2 5.5 39 7.1 W 30 46 16 25 1002.7 1002.7 0.2
16/12:30pm 19.9 13.5 5.2 38 7.2 W 28 52 15 28 1002.5 1002.5 0.2
16/12:00pm 19.1 13.3 7.8 48 5.8 WSW 28 43 15 23 1002.8 1002.8 0.2
16/11:30am 19.3 14.2 9.2 52 5.3 W 26 41 14 22 1002.4 1002.4 0.2
16/11:07am 19.3 13.7 8.9 51 5.5 WNW 28 48 15 26 1002.0 1002.0 0.2
16/11:00am 19.0 13.9 9.2 53 5.2 NW 26 43 14 23 1001.9 1001.9 0.2
16/10:30am 17.6 11.5 9.8 60 4.1 NW 32 50 17 27 1002.0 1002.0 0.2
16/10:21am 18.3 13.4 9.9 58 4.5 NW 26 46 14 25 1001.5 1001.5 0.2
16/10:00am 17.2 12.5 10.6 65 3.6 WNW 26 52 14 28 1001.8 1001.8 0.2
16/09:30am 20.3 14.7 8.6 47 6.1 WNW 28 48 15 26 1001.6 1001.6 0.0
16/09:15am 20.3 14.5 8.0 45 6.4 WNW 28 56 15 30 1001.7 1001.7 0.0
16/09:00am 20.9 16.8 8.5 45 6.6 W 20 37 11 20 1002.0 1002.0 0.0
16/08:30am 20.0 15.4 8.0 46 6.2 W 22 35 12 19 1001.7 1001.7 0.0
16/08:00am 19.6 15.0 8.0 47 6.0 W 22 44 12 24 1000.6 1000.6 0.0
16/07:30am 19.7 15.4 7.1 44 6.4 WNW 19 30 10 16 999.8 999.8 0.0
16/07:00am 20.2 13.9 5.8 39 7.2 W 28 46 15 25 999.7 999.7 0.0
16/06:54am 20.3 13.9 5.1 37 7.5 W 28 46 15 25 999.4 999.3 0.0
16/06:30am 18.2 14.2 2.9 36 7.1 W 13 19 7 10 998.1 998.1 0.0
16/06:00am 19.5 15.1 2.8 33 7.9 N 15 22 8 12 996.5 996.5 0.0
16/05:30am 19.5 15.1 2.8 33 7.8 N 15 20 8 11 996.7 996.7 0.0
16/05:00am 19.0 14.8 3.6 36 7.3 N 15 20 8 11 996.7 996.7 0.0
16/04:30am 18.7 14.5 3.7 37 7.1 N 15 20 8 11 997.0 997.0 0.0
16/04:00am 17.9 14.9 4.1 40 6.6 NNW 9 11 5 6 997.6 997.6 0.0
16/03:30am 18.3 14.6 4.5 40 6.6 N 13 19 7 10 997.3 997.3 0.0
16/03:00am 17.7 14.8 4.6 42 6.3 N 9 15 5 8 997.9 997.9 0.0
16/02:30am 17.8 14.3 5.4 44 6.0 N 13 17 7 9 998.5 998.5 0.0
16/02:00am 16.2 13.9 4.9 47 5.4 N 6 9 3 5 999.1 999.1 0.0
16/01:30am 18.3 15.4 4.8 41 6.5 N 9 15 5 8 999.8 999.8 0.0
16/01:00am 19.0 14.2 4.7 39 6.9 N 19 26 10 14 1000.3 1000.3 0.0
16/12:30am 18.9 14.2 5.0 40 6.7 N 19 28 10 15 1001.0 1001.0 0.0
16/12:00am 16.6 13.6 6.1 50 5.2 NNE 11 17 6 9 1001.7 1001.7 0.0
 
Date/Time
EST
Temp
°C
App
Temp
°C
Dew
Point
°C
Rel
Hum
%
Delta-T
°C
Wind Press
QNH
hPa
Press
MSL
hPa
Rain since
9am
mm
Dir  Spd
km/h
Gust
km/h
Spd
kts
Gust
kts
15/11:30pm 16.1 13.6 6.5 53 4.7 NNE 9 13 5 7 1002.5 1002.5 0.0
15/11:00pm 15.4 13.0 7.2 58 4.1 NE 9 11 5 6 1003.0 1003.0 0.0
15/10:30pm 15.9 13.6 7.4 57 4.2 ENE 9 11 5 6 1003.9 1003.9 0.0
15/10:00pm 16.4 13.8 7.9 57 4.3 ENE 11 13 6 7 1004.6 1004.6 0.0
15/09:30pm 16.7 14.2 8.1 57 4.4 ENE 11 15 6 8 1005.2 1005.2 0.0
15/09:00pm 16.0 14.1 9.0 63 3.6 E 9 11 5 6 1005.7 1005.7 0.0
15/08:30pm 15.9 14.7 9.6 66 3.3 ENE 6 9 3 5 1006.0 1006.0 0.0
15/08:00pm 16.5 15.4 10.1 66 3.4 ENE 6 7 3 4 1006.1 1006.1 0.0
15/07:30pm 16.7 15.6 10.1 65 3.5 E 6 9 3 5 1006.2 1006.2 0.0
15/07:00pm 18.6 17.2 9.4 55 4.9 NE 7 11 4 6 1006.4 1006.4 0.0
15/06:30pm 18.7 16.8 9.2 54 5.0 NNE 9 9 5 5 1006.3 1006.3 0.0
15/06:00pm 19.6 18.0 8.9 50 5.6 NNE 7 9 4 5 1006.3 1006.3 0.0
15/05:30pm 20.0 17.7 9.0 49 5.8 N 11 13 6 7 1006.0 1006.0 0.0
15/05:00pm 21.2 18.8 8.8 45 6.6 N 11 20 6 11 1006.2 1006.2 0.0

Other Formats:

Comma delimited format used in spreadsheet applications
http://www.bom.gov.au/fwo/IDN60801/IDN60801.95761.axf

JavaScript Object Notation format (JSON) in row-major order
http://www.bom.gov.au/fwo/IDN60801/IDN60801.95761.json